DAUI

Details ICAO DAUI (INZ)
Name IN SALAH
Region Algeria
Timezone Africa/Algiers (UTC+1.0)
Plans Departing 14
Arriving 17
Stats Elevation 896 ft / 273 m (AMSL)
Location 27.251021° 2.512018°
Runways 1
Magnetic Variation 0.482° E
Sunrise 2018-05-28 04:57:51 UTC / 2018-05-28 05:57:51 Local
Sunset 2018-05-28 18:39:29 UTC / 2018-05-28 19:39:29 Local
Advertisement - Login to hide

Runways

ID Width Length Bearing (true) Bearing (mag) Surface Threshold Offset Overrun Length
05 148 ft / 45 m 9,827 ft / 2,995 m 50.81° 50.33° Asphalt 0 ft / 0 m 150 ft / 46 m
23 148 ft / 45 m 9,827 ft / 2,995 m 230.82° 230.34° Asphalt 0 ft / 0 m 150 ft / 46 m

Map

Weather


0- 5 10 15 20 25 30 35+ Temperature / ° C

Clouds and Precipitation
Forecast for 2018-05-28 00:00 UTC. Updated 40 minutes ago

Ground ~20,000 ft ~40,000 ft Winds

METAR

DAUI 280000Z 30008KT 8000 NSC 34/M02 Q1008

TAF

TAF DAUI 272300Z 2800/2824 32008KT 8000 NSC BECMG 2809/2812 24012KT PROB30 2813/2817 24022KT 5000 DRSA BECMG 2821/2824 VRB02KT

Frequencies

Tower 118.10 MHz TWR
Tower 119.70 MHz TWR
Warning: Do not use this data for real-world aviation or navigation. No guarantee of current accuracy is given.